Monchique, Portugal

11:19 AM -01 on March 23, 2017 (GMT -0100)
Mexilhoeira Grande | | Change Station

Elev 167 ft 37.18 °N, 8.64 °W | Updated 1 second ago

Partly Cloudy
Partly Cloudy
55.0 °F
Feels Like 55.0 °F
N
25.5
Wind Variable Wind from NNW
Gusts 32.4 mph

Today
High -- | Low -- °F
--% Chance of Precip.
Yesterday
High -- | Low -- °F
Precip. -- in
Pressure 30.01 in
Visibility 6.2 miles
Clouds Mostly Cloudy 3200 ft
Dew Point 23 °F
Humidity 28%
Rainfall 0.11 in
Snow Depth Not available.
5:33 AM 5:48 PM
Waning Crescent, 24% visible
METAR LPFR 231200Z 25011KT 9999 BKN032 12/07 Q1016
Pressure 30.01 in
Visibility 6.2 miles
Clouds Mostly Cloudy 3200 ft
Dew Point 23 °F
Humidity 28%
Rainfall 0.11 in
Snow Depth Not available.
5:33 AM 5:48 PM
Waning Crescent, 24% visible
METAR LPFR 231200Z 25011KT 9999 BKN032 12/07 Q1016

Get Severe Weather Alerts

Thanks for signing up!

Be on the lookout for a verification email in your inbox.

You'll start receiving the daily forecast at 8 AM.

×

10-Day Weather Forecast

×

Almanac

Astronomy

Mar. 23, 2017 Rise Set
Actual Time
Civil Twilight
Nautical Twilight
Astronomical Twilight
Moon
Length of Visible Light
Length of Day
Tomorrow will be .
, % of the Moon is Illuminated

Today's Extremes

Country Highs Country Lows

Community

WunderPhotos

Upload Photos

1,962,540 photos uploaded!

WunderBlog® & News

Nearby

Air Quality

  Air Quality AQ Index Pollutant
Not available.

Snow Depth

Station Depth Elevation

Earthquake Activity

City Distance Mag. Time & Date
Minimum magnitude displayed is 2.5.

Earthquake Activity

City Distance Mag. Time & Date
Minimum magnitude displayed is 2.5.

Coastal Water Temperatures

Place Temperature

Stations

Nearby Weather Stations

Station Location Temp. Windchill Dew Point Humidity Wind Precip. Elev Updated Type